sensor_id;sensor_type;location;lat;lon;timestamp;pressure;altitude;pressure_sealevel;temperature;humidity
43741;BME280;29352;48.708;9.290;2023-02-15T00:00:17;99174.28;;;-8.29;87.14
43741;BME280;29352;48.708;9.290;2023-02-15T00:02:43;99169.56;;;-8.01;85.97
43741;BME280;29352;48.708;9.290;2023-02-15T00:05:09;99175.09;;;-8.08;86.10
43741;BME280;29352;48.708;9.290;2023-02-15T00:07:34;99172.25;;;-8.23;86.29
43741;BME280;29352;48.708;9.290;2023-02-15T00:10:00;99159.66;;;-8.12;85.20
43741;BME280;29352;48.708;9.290;2023-02-15T00:12:25;99161.91;;;-8.23;84.46
43741;BME280;29352;48.708;9.290;2023-02-15T00:14:50;99159.44;;;-8.26;84.54
43741;BME280;29352;48.708;9.290;2023-02-15T00:17:16;99167.34;;;-8.29;84.59
43741;BME280;29352;48.708;9.290;2023-02-15T00:19:42;99149.69;;;-8.21;83.92
43741;BME280;29352;48.708;9.290;2023-02-15T00:22:07;99151.28;;;-8.37;84.24
43741;BME280;29352;48.708;9.290;2023-02-15T00:24:33;99149.84;;;-8.44;86.04
43741;BME280;29352;48.708;9.290;2023-02-15T00:26:58;99160.06;;;-8.41;85.81
43741;BME280;29352;48.708;9.290;2023-02-15T00:29:24;99156.16;;;-8.50;86.45
43741;BME280;29352;48.708;9.290;2023-02-15T00:31:49;99155.44;;;-8.53;85.49
43741;BME280;29352;48.708;9.290;2023-02-15T00:34:16;99152.63;;;-8.28;84.31
43741;BME280;29352;48.708;9.290;2023-02-15T00:36:45;99147.06;;;-8.00;84.21
43741;BME280;29352;48.708;9.290;2023-02-15T00:39:11;99148.28;;;-8.48;84.69
43741;BME280;29352;48.708;9.290;2023-02-15T00:41:37;99142.09;;;-8.65;85.13
43741;BME280;29352;48.708;9.290;2023-02-15T00:44:04;99143.00;;;-8.45;84.70
43741;BME280;29352;48.708;9.290;2023-02-15T00:46:31;99137.00;;;-8.27;83.63
43741;BME280;29352;48.708;9.290;2023-02-15T00:48:57;99144.38;;;-8.57;84.08
43741;BME280;29352;48.708;9.290;2023-02-15T00:51:23;99141.81;;;-8.59;84.39
43741;BME280;29352;48.708;9.290;2023-02-15T00:53:49;99139.38;;;-8.62;84.28
43741;BME280;29352;48.708;9.290;2023-02-15T00:56:14;99149.59;;;-8.59;84.08
43741;BME280;29352;48.708;9.290;2023-02-15T00:58:40;99145.88;;;-8.72;84.30
43741;BME280;29352;48.708;9.290;2023-02-15T01:01:12;99136.13;;;-8.46;83.44
43741;BME280;29352;48.708;9.290;2023-02-15T01:03:39;99148.88;;;-8.42;83.12
43741;BME280;29352;48.708;9.290;2023-02-15T01:06:07;99144.41;;;-8.38;83.29
43741;BME280;29352;48.708;9.290;2023-02-15T01:08:33;99146.84;;;-8.54;83.24
43741;BME280;29352;48.708;9.290;2023-02-15T01:11:24;99146.16;;;-8.59;83.13
43741;BME280;29352;48.708;9.290;2023-02-15T01:13:57;99144.28;;;-8.76;82.97
43741;BME280;29352;48.708;9.290;2023-02-15T01:16:25;99144.69;;;-8.85;82.31
43741;BME280;29352;48.708;9.290;2023-02-15T01:18:52;99143.53;;;-8.78;82.85
43741;BME280;29352;48.708;9.290;2023-02-15T01:21:22;99145.72;;;-8.69;82.67
43741;BME280;29352;48.708;9.290;2023-02-15T01:23:51;99142.59;;;-8.77;82.49
43741;BME280;29352;48.708;9.290;2023-02-15T01:26:17;99139.66;;;-8.68;82.70
43741;BME280;29352;48.708;9.290;2023-02-15T01:28:44;99141.31;;;-8.67;82.18
43741;BME280;29352;48.708;9.290;2023-02-15T01:31:16;99146.13;;;-8.58;82.70
43741;BME280;29352;48.708;9.290;2023-02-15T01:33:45;99139.09;;;-8.55;83.22
43741;BME280;29352;48.708;9.290;2023-02-15T01:36:13;99130.03;;;-8.25;83.19
43741;BME280;29352;48.708;9.290;2023-02-15T01:38:39;99131.53;;;-8.00;83.49
43741;BME280;29352;48.708;9.290;2023-02-15T01:41:05;99127.00;;;-7.95;83.75
43741;BME280;29352;48.708;9.290;2023-02-15T01:43:57;99130.94;;;-8.26;82.54
43741;BME280;29352;48.708;9.290;2023-02-15T01:46:37;99137.56;;;-8.39;83.32
43741;BME280;29352;48.708;9.290;2023-02-15T01:49:13;99126.16;;;-8.35;83.41
43741;BME280;29352;48.708;9.290;2023-02-15T01:51:43;99131.59;;;-8.41;82.86
43741;BME280;29352;48.708;9.290;2023-02-15T01:56:47;99134.06;;;-8.38;84.44
43741;BME280;29352;48.708;9.290;2023-02-15T01:59:18;99132.38;;;-8.60;82.43
43741;BME280;29352;48.708;9.290;2023-02-15T02:01:48;99134.22;;;-8.82;82.45
43741;BME280;29352;48.708;9.290;2023-02-15T02:04:38;99130.16;;;-8.89;82.44
43741;BME280;29352;48.708;9.290;2023-02-15T02:07:08;99120.47;;;-8.84;82.14
43741;BME280;29352;48.708;9.290;2023-02-15T02:09:37;99118.59;;;-9.01;82.59
43741;BME280;29352;48.708;9.290;2023-02-15T02:12:03;99124.34;;;-8.94;82.95
43741;BME280;29352;48.708;9.290;2023-02-15T02:14:29;99119.81;;;-8.69;81.59
43741;BME280;29352;48.708;9.290;2023-02-15T02:17:09;99110.00;;;-8.81;82.06
43741;BME280;29352;48.708;9.290;2023-02-15T02:41:16;99102.28;;;-8.83;81.99
43741;BME280;29352;48.708;9.290;2023-02-15T02:46:48;99110.94;;;-9.04;82.84
43741;BME280;29352;48.708;9.290;2023-02-15T02:49:46;99105.88;;;-8.85;82.87
43741;BME280;29352;48.708;9.290;2023-02-15T02:52:47;99108.00;;;-8.95;82.18
43741;BME280;29352;48.708;9.290;2023-02-15T02:55:22;99106.50;;;-8.80;82.05
43741;BME280;29352;48.708;9.290;2023-02-15T03:00:25;99106.28;;;-9.16;83.44
43741;BME280;29352;48.708;9.290;2023-02-15T03:03:02;99102.44;;;-8.86;84.81
43741;BME280;29352;48.708;9.290;2023-02-15T03:05:57;99094.84;;;-8.70;83.45
43741;BME280;29352;48.708;9.290;2023-02-15T03:08:36;99099.91;;;-8.87;83.65
43741;BME280;29352;48.708;9.290;2023-02-15T03:11:09;99099.28;;;-8.72;83.64
43741;BME280;29352;48.708;9.290;2023-02-15T03:13:37;99094.53;;;-9.03;85.64
43741;BME280;29352;48.708;9.290;2023-02-15T03:16:05;99096.94;;;-8.98;85.46
43741;BME280;29352;48.708;9.290;2023-02-15T03:19:06;99096.91;;;-9.19;84.70
43741;BME280;29352;48.708;9.290;2023-02-15T03:21:47;99093.94;;;-9.10;83.51
43741;BME280;29352;48.708;9.290;2023-02-15T03:24:25;99095.75;;;-9.12;82.45
43741;BME280;29352;48.708;9.290;2023-02-15T03:27:04;99093.84;;;-9.29;81.93
43741;BME280;29352;48.708;9.290;2023-02-15T03:29:36;99096.81;;;-9.17;81.60
43741;BME280;29352;48.708;9.290;2023-02-15T03:32:07;99094.53;;;-9.03;80.80
43741;BME280;29352;48.708;9.290;2023-02-15T03:34:36;99102.84;;;-9.39;80.85
43741;BME280;29352;48.708;9.290;2023-02-15T03:37:10;99097.09;;;-9.45;82.59
43741;BME280;29352;48.708;9.290;2023-02-15T03:52:08;99095.13;;;-9.61;85.09
43741;BME280;29352;48.708;9.290;2023-02-15T03:54:37;99092.09;;;-9.28;82.83
43741;BME280;29352;48.708;9.290;2023-02-15T04:00:15;99090.78;;;-9.60;81.07
43741;BME280;29352;48.708;9.290;2023-02-15T04:05:41;99096.19;;;-9.66;81.00
43741;BME280;29352;48.708;9.290;2023-02-15T04:08:08;99095.00;;;-9.58;80.57
43741;BME280;29352;48.708;9.290;2023-02-15T04:10:35;99098.16;;;-9.73;81.95
43741;BME280;29352;48.708;9.290;2023-02-15T04:13:29;99094.94;;;-9.78;84.64
43741;BME280;29352;48.708;9.290;2023-02-15T04:15:56;99089.84;;;-9.58;84.96
43741;BME280;29352;48.708;9.290;2023-02-15T04:18:35;99084.44;;;-9.51;83.97
43741;BME280;29352;48.708;9.290;2023-02-15T04:21:26;99081.88;;;-9.53;83.05
43741;BME280;29352;48.708;9.290;2023-02-15T04:24:12;99082.69;;;-9.51;81.52
43741;BME280;29352;48.708;9.290;2023-02-15T04:26:57;99079.50;;;-9.58;83.64
43741;BME280;29352;48.708;9.290;2023-02-15T04:29:24;99091.91;;;-9.45;84.06
43741;BME280;29352;48.708;9.290;2023-02-15T04:31:52;99085.41;;;-8.91;81.60
43741;BME280;29352;48.708;9.290;2023-02-15T04:34:19;99091.53;;;-9.14;81.50
43741;BME280;29352;48.708;9.290;2023-02-15T04:36:44;99077.31;;;-9.46;82.14
43741;BME280;29352;48.708;9.290;2023-02-15T04:39:13;99088.63;;;-9.71;82.41
43741;BME280;29352;48.708;9.290;2023-02-15T04:41:40;99082.66;;;-9.73;82.50
43741;BME280;29352;48.708;9.290;2023-02-15T04:44:06;99078.94;;;-9.66;81.95
43741;BME280;29352;48.708;9.290;2023-02-15T04:46:31;99080.19;;;-9.76;81.15
43741;BME280;29352;48.708;9.290;2023-02-15T04:48:57;99070.47;;;-9.69;81.57
43741;BME280;29352;48.708;9.290;2023-02-15T04:51:22;99077.13;;;-9.86;80.83
43741;BME280;29352;48.708;9.290;2023-02-15T04:53:48;99081.50;;;-9.88;81.73
43741;BME280;29352;48.708;9.290;2023-02-15T04:56:14;99068.84;;;-9.72;80.32
43741;BME280;29352;48.708;9.290;2023-02-15T04:58:40;99071.09;;;-9.86;80.05
43741;BME280;29352;48.708;9.290;2023-02-15T05:01:07;99075.72;;;-9.94;80.66
43741;BME280;29352;48.708;9.290;2023-02-15T05:03:34;99068.97;;;-9.75;80.52
43741;BME280;29352;48.708;9.290;2023-02-15T05:05:59;99062.59;;;-9.44;78.44
43741;BME280;29352;48.708;9.290;2023-02-15T05:08:25;99058.94;;;-9.18;77.28
43741;BME280;29352;48.708;9.290;2023-02-15T05:10:51;99052.88;;;-9.82;78.33
43741;BME280;29352;48.708;9.290;2023-02-15T05:13:16;99056.72;;;-10.15;81.87
43741;BME280;29352;48.708;9.290;2023-02-15T05:15:47;99058.09;;;-9.61;82.49
43741;BME280;29352;48.708;9.290;2023-02-15T05:18:14;99054.88;;;-9.90;83.76
43741;BME280;29352;48.708;9.290;2023-02-15T05:20:40;99052.75;;;-9.79;84.45
43741;BME280;29352;48.708;9.290;2023-02-15T05:23:06;99050.50;;;-9.88;84.31
43741;BME280;29352;48.708;9.290;2023-02-15T05:25:31;99060.19;;;-9.93;84.18
43741;BME280;29352;48.708;9.290;2023-02-15T05:28:15;99058.44;;;-9.92;82.46
43741;BME280;29352;48.708;9.290;2023-02-15T05:30:48;99054.88;;;-10.12;80.76
43741;BME280;29352;48.708;9.290;2023-02-15T05:33:16;99065.53;;;-10.21;82.39
43741;BME280;29352;48.708;9.290;2023-02-15T05:35:42;99074.53;;;-10.31;81.87
43741;BME280;29352;48.708;9.290;2023-02-15T05:38:07;99071.94;;;-10.31;82.83
43741;BME280;29352;48.708;9.290;2023-02-15T05:40:33;99074.06;;;-10.42;84.59
43741;BME280;29352;48.708;9.290;2023-02-15T05:42:59;99084.38;;;-10.42;85.51
43741;BME280;29352;48.708;9.290;2023-02-15T05:45:25;99070.44;;;-10.37;82.80
43741;BME280;29352;48.708;9.290;2023-02-15T05:47:50;99072.84;;;-10.32;82.73
43741;BME280;29352;48.708;9.290;2023-02-15T05:50:16;99075.00;;;-10.21;82.02
43741;BME280;29352;48.708;9.290;2023-02-15T05:52:41;99077.13;;;-10.31;82.46
43741;BME280;29352;48.708;9.290;2023-02-15T05:55:07;99070.03;;;-10.03;80.85
43741;BME280;29352;48.708;9.290;2023-02-15T05:57:34;99067.34;;;-10.23;81.77
43741;BME280;29352;48.708;9.290;2023-02-15T06:00:04;99068.69;;;-10.36;80.45
43741;BME280;29352;48.708;9.290;2023-02-15T06:02:36;99064.06;;;-10.28;80.59
43741;BME280;29352;48.708;9.290;2023-02-15T06:05:03;99067.78;;;-10.12;81.25
43741;BME280;29352;48.708;9.290;2023-02-15T06:07:30;99067.59;;;-10.07;83.20
43741;BME280;29352;48.708;9.290;2023-02-15T06:09:56;99070.63;;;-10.43;82.87
43741;BME280;29352;48.708;9.290;2023-02-15T06:12:22;99066.16;;;-10.61;81.92
43741;BME280;29352;48.708;9.290;2023-02-15T06:14:47;99070.19;;;-10.54;81.59
43741;BME280;29352;48.708;9.290;2023-02-15T06:17:13;99072.16;;;-10.37;81.17
43741;BME280;29352;48.708;9.290;2023-02-15T06:19:38;99072.56;;;-10.48;81.08
43741;BME280;29352;48.708;9.290;2023-02-15T06:22:04;99088.03;;;-10.48;81.42
43741;BME280;29352;48.708;9.290;2023-02-15T06:24:31;99091.78;;;-10.57;81.09
43741;BME280;29352;48.708;9.290;2023-02-15T06:26:57;99099.91;;;-10.67;80.58
43741;BME280;29352;48.708;9.290;2023-02-15T06:29:23;99095.81;;;-10.50;81.46
43741;BME280;29352;48.708;9.290;2023-02-15T06:31:49;99094.59;;;-10.39;81.59
43741;BME280;29352;48.708;9.290;2023-02-15T06:34:14;99097.34;;;-10.44;80.74
43741;BME280;29352;48.708;9.290;2023-02-15T06:36:40;99092.94;;;-10.40;81.08
43741;BME280;29352;48.708;9.290;2023-02-15T06:39:05;99099.38;;;-10.29;81.10
43741;BME280;29352;48.708;9.290;2023-02-15T06:41:31;99096.72;;;-10.04;81.17
43741;BME280;29352;48.708;9.290;2023-02-15T06:43:56;99100.16;;;-9.58;80.00
43741;BME280;29352;48.708;9.290;2023-02-15T06:46:22;99093.59;;;-9.22;78.10
43741;BME280;29352;48.708;9.290;2023-02-15T06:48:48;99097.16;;;-9.05;76.80
43741;BME280;29352;48.708;9.290;2023-02-15T06:51:13;99092.44;;;-8.15;74.12
43741;BME280;29352;48.708;9.290;2023-02-15T06:53:39;99097.47;;;-7.01;73.32
43741;BME280;29352;48.708;9.290;2023-02-15T06:56:09;99088.47;;;-6.77;70.60
43741;BME280;29352;48.708;9.290;2023-02-15T06:58:36;99104.19;;;-7.15;70.37
43741;BME280;29352;48.708;9.290;2023-02-15T07:01:03;99089.53;;;-5.50;66.90
43741;BME280;29352;48.708;9.290;2023-02-15T07:03:30;99089.75;;;-4.92;65.67
43741;BME280;29352;48.708;9.290;2023-02-15T07:05:58;99094.75;;;-5.50;65.56
43741;BME280;29352;48.708;9.290;2023-02-15T07:08:25;99092.13;;;-5.04;64.53
43741;BME280;29352;48.708;9.290;2023-02-15T07:10:53;99089.38;;;-4.56;64.43
43741;BME280;29352;48.708;9.290;2023-02-15T07:13:40;99097.19;;;-3.85;63.79
43741;BME280;29352;48.708;9.290;2023-02-15T07:16:08;99095.56;;;-4.73;65.03
43741;BME280;29352;48.708;9.290;2023-02-15T07:18:34;99099.53;;;-3.80;62.98
43741;BME280;29352;48.708;9.290;2023-02-15T07:21:00;99088.13;;;-2.32;59.90
43741;BME280;29352;48.708;9.290;2023-02-15T07:23:26;99086.88;;;-2.40;59.81
43741;BME280;29352;48.708;9.290;2023-02-15T07:26:00;99098.03;;;-3.16;62.83
43741;BME280;29352;48.708;9.290;2023-02-15T07:28:27;99099.94;;;-3.05;61.99
43741;BME280;29352;48.708;9.290;2023-02-15T07:30:53;99100.91;;;-3.06;62.30
43741;BME280;29352;48.708;9.290;2023-02-15T07:33:19;99102.00;;;-2.83;62.09
43741;BME280;29352;48.708;9.290;2023-02-15T07:35:57;99104.22;;;-2.39;61.07
43741;BME280;29352;48.708;9.290;2023-02-15T07:38:25;99095.22;;;-0.99;58.02
43741;BME280;29352;48.708;9.290;2023-02-15T07:40:51;99087.78;;;-0.69;56.38
43741;BME280;29352;48.708;9.290;2023-02-15T07:43:22;99081.91;;;-0.84;57.61
43741;BME280;29352;48.708;9.290;2023-02-15T07:45:48;99078.94;;;-1.39;58.73
43741;BME280;29352;48.708;9.290;2023-02-15T07:48:13;99081.41;;;-0.89;58.90
43741;BME280;29352;48.708;9.290;2023-02-15T07:50:38;99080.47;;;-1.48;57.49
43741;BME280;29352;48.708;9.290;2023-02-15T07:53:04;99080.91;;;-1.67;58.63
43741;BME280;29352;48.708;9.290;2023-02-15T07:55:30;99079.28;;;-0.15;57.75
43741;BME280;29352;48.708;9.290;2023-02-15T07:57:55;99076.75;;;-0.17;57.48
43741;BME280;29352;48.708;9.290;2023-02-15T08:00:22;99068.28;;;0.24;55.42
43741;BME280;29352;48.708;9.290;2023-02-15T08:02:54;99073.84;;;-0.70;56.83
43741;BME280;29352;48.708;9.290;2023-02-15T08:05:40;99073.44;;;0.15;56.59
43741;BME280;29352;48.708;9.290;2023-02-15T08:08:08;99073.19;;;0.73;53.87
43741;BME280;29352;48.708;9.290;2023-02-15T08:10:57;99068.81;;;1.15;53.62
43741;BME280;29352;48.708;9.290;2023-02-15T08:13:47;99061.75;;;2.09;51.77
43741;BME280;29352;48.708;9.290;2023-02-15T08:16:41;99061.38;;;2.23;51.64
43741;BME280;29352;48.708;9.290;2023-02-15T08:21:57;99070.59;;;0.93;54.25
43741;BME280;29352;48.708;9.290;2023-02-15T08:24:29;99072.47;;;2.27;52.53
43741;BME280;29352;48.708;9.290;2023-02-15T08:26:57;99068.44;;;1.61;54.11
43741;BME280;29352;48.708;9.290;2023-02-15T08:29:26;99072.91;;;1.40;54.89
43741;BME280;29352;48.708;9.290;2023-02-15T08:31:56;99067.38;;;1.95;54.94
43741;BME280;29352;48.708;9.290;2023-02-15T08:34:29;99074.56;;;1.93;53.11
43741;BME280;29352;48.708;9.290;2023-02-15T08:36:56;99070.75;;;1.55;53.97
43741;BME280;29352;48.708;9.290;2023-02-15T08:39:22;99080.72;;;2.03;54.17
43741;BME280;29352;48.708;9.290;2023-02-15T08:41:48;99073.13;;;2.89;51.78
43741;BME280;29352;48.708;9.290;2023-02-15T08:44:16;99071.97;;;2.52;52.15
43741;BME280;29352;48.708;9.290;2023-02-15T08:46:45;99071.72;;;2.65;53.12
43741;BME280;29352;48.708;9.290;2023-02-15T08:49:15;99068.38;;;2.44;53.66
43741;BME280;29352;48.708;9.290;2023-02-15T08:51:47;99065.88;;;1.81;53.72
43741;BME280;29352;48.708;9.290;2023-02-15T08:54:16;99064.91;;;2.53;52.73
43741;BME280;29352;48.708;9.290;2023-02-15T08:56:44;99059.75;;;1.71;54.52
43741;BME280;29352;48.708;9.290;2023-02-15T08:59:30;99056.47;;;2.78;52.37
43741;BME280;29352;48.708;9.290;2023-02-15T09:01:56;99055.06;;;2.55;53.69
43741;BME280;29352;48.708;9.290;2023-02-15T09:04:21;99054.59;;;2.30;52.65
43741;BME280;29352;48.708;9.290;2023-02-15T09:06:48;99047.56;;;3.18;53.22
43741;BME280;29352;48.708;9.290;2023-02-15T09:09:16;99046.28;;;3.51;51.57
43741;BME280;29352;48.708;9.290;2023-02-15T09:11:43;99056.31;;;3.38;51.88
43741;BME280;29352;48.708;9.290;2023-02-15T09:14:20;99052.28;;;2.66;53.00
43741;BME280;29352;48.708;9.290;2023-02-15T09:16:47;99052.56;;;3.02;52.17
43741;BME280;29352;48.708;9.290;2023-02-15T09:19:15;99046.66;;;2.21;54.11
43741;BME280;29352;48.708;9.290;2023-02-15T09:21:43;99045.34;;;3.04;54.52
43741;BME280;29352;48.708;9.290;2023-02-15T09:24:11;99048.69;;;2.87;53.66
43741;BME280;29352;48.708;9.290;2023-02-15T09:26:40;99036.19;;;1.38;57.24
43741;BME280;29352;48.708;9.290;2023-02-15T09:29:09;99038.34;;;2.25;55.33
43741;BME280;29352;48.708;9.290;2023-02-15T09:31:41;99034.00;;;1.43;57.53
43741;BME280;29352;48.708;9.290;2023-02-15T09:34:10;99031.28;;;2.16;54.96
43741;BME280;29352;48.708;9.290;2023-02-15T09:36:38;99035.88;;;1.62;55.00
43741;BME280;29352;48.708;9.290;2023-02-15T09:39:30;99033.22;;;2.14;54.92
43741;BME280;29352;48.708;9.290;2023-02-15T09:45:03;99032.66;;;2.20;55.04
43741;BME280;29352;48.708;9.290;2023-02-15T09:53:36;99028.44;;;2.87;53.95
43741;BME280;29352;48.708;9.290;2023-02-15T10:02:18;99022.31;;;2.87;54.59
43741;BME280;29352;48.708;9.290;2023-02-15T10:05:32;99023.00;;;2.30;54.17
43741;BME280;29352;48.708;9.290;2023-02-15T10:11:34;99023.88;;;1.70;57.98
43741;BME280;29352;48.708;9.290;2023-02-15T10:23:01;99011.78;;;2.67;55.93
43741;BME280;29352;48.708;9.290;2023-02-15T10:25:48;99006.72;;;2.06;56.44
43741;BME280;29352;48.708;9.290;2023-02-15T10:28:23;98999.66;;;2.26;55.58
43741;BME280;29352;48.708;9.290;2023-02-15T10:31:11;99004.56;;;2.50;55.92
43741;BME280;29352;48.708;9.290;2023-02-15T10:33:53;98997.75;;;2.57;56.08
43741;BME280;29352;48.708;9.290;2023-02-15T10:47:23;98983.59;;;3.53;53.71
43741;BME280;29352;48.708;9.290;2023-02-15T10:49:45;98982.53;;;3.37;54.29
43741;BME280;29352;48.708;9.290;2023-02-15T10:58:44;98971.84;;;3.48;54.44
43741;BME280;29352;48.708;9.290;2023-02-15T11:06:55;98961.75;;;3.89;54.06
43741;BME280;29352;48.708;9.290;2023-02-15T11:09:35;98949.56;;;4.69;53.44
43741;BME280;29352;48.708;9.290;2023-02-15T11:12:12;98949.84;;;4.48;52.90
43741;BME280;29352;48.708;9.290;2023-02-15T11:14:58;98948.63;;;4.42;52.35
43741;BME280;29352;48.708;9.290;2023-02-15T11:17:38;98935.84;;;4.73;52.32
43741;BME280;29352;48.708;9.290;2023-02-15T11:20:29;98938.47;;;4.20;53.49
43741;BME280;29352;48.708;9.290;2023-02-15T11:23:01;98936.28;;;5.39;50.70
43741;BME280;29352;48.708;9.290;2023-02-15T11:25:33;98937.50;;;4.74;52.03
43741;BME280;29352;48.708;9.290;2023-02-15T11:28:04;98929.00;;;4.89;50.92
43741;BME280;29352;48.708;9.290;2023-02-15T11:30:55;98927.78;;;5.01;51.90
43741;BME280;29352;48.708;9.290;2023-02-15T11:33:31;98918.97;;;5.18;51.33
43741;BME280;29352;48.708;9.290;2023-02-15T11:36:13;98930.94;;;4.25;52.45
43741;BME280;29352;48.708;9.290;2023-02-15T11:38:47;98919.56;;;5.38;51.51
43741;BME280;29352;48.708;9.290;2023-02-15T11:41:22;98918.28;;;5.51;49.90
43741;BME280;29352;48.708;9.290;2023-02-15T11:43:58;98920.41;;;5.13;51.21
43741;BME280;29352;48.708;9.290;2023-02-15T11:46:30;98919.13;;;4.91;50.84
43741;BME280;29352;48.708;9.290;2023-02-15T11:48:56;98912.91;;;5.68;50.49
43741;BME280;29352;48.708;9.290;2023-02-15T11:51:24;98922.50;;;4.57;51.04
43741;BME280;29352;48.708;9.290;2023-02-15T11:53:53;98917.50;;;4.98;51.73
43741;BME280;29352;48.708;9.290;2023-02-15T11:56:22;98910.16;;;5.44;50.59
43741;BME280;29352;48.708;9.290;2023-02-15T11:59:04;98909.00;;;5.46;50.48
43741;BME280;29352;48.708;9.290;2023-02-15T12:01:42;98911.81;;;5.45;50.06
43741;BME280;29352;48.708;9.290;2023-02-15T12:04:36;98913.75;;;5.35;50.96
43741;BME280;29352;48.708;9.290;2023-02-15T12:10:22;98897.81;;;6.69;49.74
43741;BME280;29352;48.708;9.290;2023-02-15T12:15:37;98900.41;;;7.26;50.09
43741;BME280;29352;48.708;9.290;2023-02-15T12:18:19;98896.75;;;7.27;50.02
43741;BME280;29352;48.708;9.290;2023-02-15T12:21:10;98899.09;;;7.22;52.02
43741;BME280;29352;48.708;9.290;2023-02-15T12:23:47;98899.16;;;7.53;51.92
43741;BME280;29352;48.708;9.290;2023-02-15T12:26:24;98896.31;;;6.99;52.57
43741;BME280;29352;48.708;9.290;2023-02-15T12:28:53;98900.97;;;6.39;53.33
43741;BME280;29352;48.708;9.290;2023-02-15T12:33:55;98890.38;;;6.39;54.00
43741;BME280;29352;48.708;9.290;2023-02-15T12:36:32;98886.19;;;6.21;53.17
43741;BME280;29352;48.708;9.290;2023-02-15T12:41:38;98874.56;;;7.03;52.88
43741;BME280;29352;48.708;9.290;2023-02-15T12:44:17;98890.19;;;6.90;52.36
43741;BME280;29352;48.708;9.290;2023-02-15T12:49:33;98883.34;;;7.12;53.36
43741;BME280;29352;48.708;9.290;2023-02-15T12:52:43;98874.06;;;7.00;51.13
43741;BME280;29352;48.708;9.290;2023-02-15T12:54:51;98867.00;;;6.59;51.79
43741;BME280;29352;48.708;9.290;2023-02-15T12:57:31;98867.31;;;6.89;51.75
43741;BME280;29352;48.708;9.290;2023-02-15T13:00:03;98865.16;;;6.52;52.70
43741;BME280;29352;48.708;9.290;2023-02-15T13:02:45;98860.50;;;6.95;51.99
43741;BME280;29352;48.708;9.290;2023-02-15T13:05:30;98857.44;;;7.22;52.01
43741;BME280;29352;48.708;9.290;2023-02-15T13:08:03;98853.59;;;7.25;51.31
43741;BME280;29352;48.708;9.290;2023-02-15T13:10:41;98858.72;;;6.87;52.46
43741;BME280;29352;48.708;9.290;2023-02-15T13:13:25;98845.88;;;6.99;53.71
43741;BME280;29352;48.708;9.290;2023-02-15T13:16:01;98842.63;;;6.80;53.00
43741;BME280;29352;48.708;9.290;2023-02-15T13:18:35;98838.81;;;6.75;53.34
43741;BME280;29352;48.708;9.290;2023-02-15T13:21:12;98839.41;;;7.01;53.17
43741;BME280;29352;48.708;9.290;2023-02-15T13:26:34;98827.88;;;6.78;52.49
43741;BME280;29352;48.708;9.290;2023-02-15T13:31:54;98823.06;;;6.73;52.37
43741;BME280;29352;48.708;9.290;2023-02-15T13:34:30;98821.81;;;7.00;52.47
43741;BME280;29352;48.708;9.290;2023-02-15T13:37:13;98806.97;;;6.75;53.60
43741;BME280;29352;48.708;9.290;2023-02-15T13:40:19;98811.97;;;6.53;53.67
43741;BME280;29352;48.708;9.290;2023-02-15T13:42:59;98816.59;;;6.76;53.56
43741;BME280;29352;48.708;9.290;2023-02-15T13:45:53;98813.94;;;6.76;53.91
43741;BME280;29352;48.708;9.290;2023-02-15T13:48:47;98812.78;;;6.78;53.91
43741;BME280;29352;48.708;9.290;2023-02-15T13:51:32;98811.31;;;6.59;54.55
43741;BME280;29352;48.708;9.290;2023-02-15T13:57:12;98798.75;;;6.29;55.20
43741;BME280;29352;48.708;9.290;2023-02-15T14:00:08;98802.06;;;6.23;55.66
43741;BME280;29352;48.708;9.290;2023-02-15T14:26:53;98793.75;;;5.93;55.65
43741;BME280;29352;48.708;9.290;2023-02-15T14:29:47;98790.97;;;5.86;57.05
43741;BME280;29352;48.708;9.290;2023-02-15T14:32:25;98790.63;;;5.73;57.26
43741;BME280;29352;48.708;9.290;2023-02-15T14:35:03;98789.47;;;5.84;57.96
43741;BME280;29352;48.708;9.290;2023-02-15T14:49:36;98790.88;;;5.62;56.71
43741;BME280;29352;48.708;9.290;2023-02-15T14:52:07;98792.50;;;5.55;56.52
43741;BME280;29352;48.708;9.290;2023-02-15T14:59:36;98796.03;;;5.63;57.06
43741;BME280;29352;48.708;9.290;2023-02-15T15:07:41;98792.16;;;4.99;59.46
43741;BME280;29352;48.708;9.290;2023-02-15T15:12:56;98799.16;;;4.74;60.26
43741;BME280;29352;48.708;9.290;2023-02-15T15:18:03;98805.66;;;4.54;61.03
43741;BME280;29352;48.708;9.290;2023-02-15T15:25:51;98801.34;;;3.91;61.29
43741;BME280;29352;48.708;9.290;2023-02-15T15:31:27;98795.78;;;3.58;62.10
43741;BME280;29352;48.708;9.290;2023-02-15T15:37:15;98801.50;;;3.71;61.80
43741;BME280;29352;48.708;9.290;2023-02-15T15:43:34;98805.31;;;3.14;64.00
43741;BME280;29352;48.708;9.290;2023-02-15T15:46:33;98800.69;;;3.16;63.94
43741;BME280;29352;48.708;9.290;2023-02-15T15:49:12;98807.97;;;2.76;64.99
43741;BME280;29352;48.708;9.290;2023-02-15T15:51:42;98797.69;;;2.73;64.97
43741;BME280;29352;48.708;9.290;2023-02-15T15:54:28;98800.78;;;2.59;65.20
43741;BME280;29352;48.708;9.290;2023-02-15T15:57:02;98803.06;;;2.34;66.40
43741;BME280;29352;48.708;9.290;2023-02-15T15:59:33;98807.38;;;2.35;67.33
43741;BME280;29352;48.708;9.290;2023-02-15T16:02:07;98807.09;;;2.29;66.87
43741;BME280;29352;48.708;9.290;2023-02-15T16:04:38;98802.28;;;2.14;67.25
43741;BME280;29352;48.708;9.290;2023-02-15T16:07:32;98801.31;;;1.96;66.21
43741;BME280;29352;48.708;9.290;2023-02-15T16:10:04;98802.25;;;1.76;67.02
43741;BME280;29352;48.708;9.290;2023-02-15T16:12:37;98803.50;;;1.72;66.31
43741;BME280;29352;48.708;9.290;2023-02-15T16:17:50;98790.72;;;1.38;67.59
43741;BME280;29352;48.708;9.290;2023-02-15T16:20:23;98796.28;;;0.94;68.99
43741;BME280;29352;48.708;9.290;2023-02-15T16:28:56;98804.50;;;0.50;69.06
43741;BME280;29352;48.708;9.290;2023-02-15T16:31:22;98810.28;;;0.43;68.83
43741;BME280;29352;48.708;9.290;2023-02-15T16:33:52;98814.47;;;0.14;70.12
43741;BME280;29352;48.708;9.290;2023-02-15T16:41:17;98820.28;;;-0.04;71.35
43741;BME280;29352;48.708;9.290;2023-02-15T16:43:49;98827.31;;;-0.04;70.90
43741;BME280;29352;48.708;9.290;2023-02-15T16:46:28;98829.06;;;-0.26;71.96
43741;BME280;29352;48.708;9.290;2023-02-15T16:49:27;98828.91;;;-0.13;71.33
43741;BME280;29352;48.708;9.290;2023-02-15T16:52:00;98834.19;;;-0.67;72.68
43741;BME280;29352;48.708;9.290;2023-02-15T16:54:29;98836.09;;;-1.03;73.60
43741;BME280;29352;48.708;9.290;2023-02-15T16:56:57;98841.25;;;-0.90;73.38